Time;durP1;ratioP1;P1;durP2;ratioP2;P2;SDS_P1;SDS_P2;PMS_P1;PMS_P2;Temp;Humidity;BMP_temperature;BMP_pressure;BME280_temperature;BME280_humidity;BME280_pressure;Samples;Min_cycle;Max_cycle;Signal;HPM_P1;HPM_P2
2022/08/14 00:00:57;;;;;;;8.32;7.63;;;18.50;99.90;;;;;;5092714;28;20192;-77
2022/08/14 00:03:26;;;;;;;8.43;7.63;;;18.40;99.90;;;;;;5092490;28;20252;-77
2022/08/14 00:05:54;;;;;;;8.77;7.88;;;18.30;99.90;;;;;;5092832;28;20204;-77
2022/08/14 00:08:21;;;;;;;8.65;7.85;;;18.20;99.90;;;;;;5092747;28;20200;-77
2022/08/14 00:10:48;;;;;;;8.55;7.32;;;18.10;99.90;;;;;;5092665;28;20269;-77
2022/08/14 00:13:16;;;;;;;8.70;7.53;;;18.10;99.90;;;;;;5092636;28;20602;-77
2022/08/14 00:15:48;;;;;;;8.27;7.57;;;18.10;99.90;;;;;;5092770;28;20196;-77
2022/08/14 00:18:19;;;;;;;7.80;7.10;;;18.20;99.90;;;;;;5092548;28;20902;-77
2022/08/14 00:20:47;;;;;;;8.43;7.72;;;18.10;99.90;;;;;;5092785;28;20197;-77
2022/08/14 00:23:16;;;;;;;10.52;7.70;;;18.10;99.90;;;;;;5092511;28;20209;-77
2022/08/14 00:25:44;;;;;;;9.23;8.32;;;18.00;99.90;;;;;;5092524;28;20192;-77
2022/08/14 00:28:13;;;;;;;8.32;7.60;;;17.90;99.90;;;;;;5092456;28;20250;-77
2022/08/14 00:30:40;;;;;;;9.38;8.43;;;17.90;99.90;;;;;;5092611;28;20273;-77
2022/08/14 00:33:08;;;;;;;8.40;7.60;;;18.00;99.90;;;;;;5092658;28;20196;-77
2022/08/14 00:35:35;;;;;;;8.60;7.80;;;17.80;99.90;;;;;;5092553;28;20226;-77
2022/08/14 00:38:01;;;;;;;9.38;8.35;;;17.80;99.90;;;;;;5092346;28;20207;-78
2022/08/14 00:40:28;;;;;;;10.10;7.78;;;17.70;99.90;;;;;;5092226;28;20229;-77
2022/08/14 00:42:55;;;;;;;8.68;7.95;;;17.70;99.90;;;;;;5092335;28;20644;-77
2022/08/14 00:45:21;;;;;;;9.68;8.68;;;17.80;99.90;;;;;;5092180;28;20698;-77
2022/08/14 00:47:49;;;;;;;9.55;8.52;;;17.60;99.90;;;;;;5092391;28;20270;-77
2022/08/14 00:50:20;;;;;;;8.73;7.93;;;17.60;99.90;;;;;;5093300;28;20540;-77
2022/08/14 00:52:48;;;;;;;8.25;7.55;;;17.50;99.90;;;;;;5095966;28;20200;-77
2022/08/14 00:55:14;;;;;;;9.38;8.57;;;17.30;99.90;;;;;;5095837;28;20196;-78
2022/08/14 00:57:41;;;;;;;9.52;8.65;;;17.20;99.90;;;;;;5095705;28;20659;-78
2022/08/14 01:00:13;;;;;;;10.00;8.90;;;17.10;99.90;;;;;;5095946;28;20201;-78
2022/08/14 01:02:42;;;;;;;9.57;8.57;;;17.10;99.90;;;;;;5096003;28;20196;-77
2022/08/14 01:05:22;;;;;;;9.70;8.70;;;17.20;99.90;;;;;;5095667;28;20315;-78
2022/08/14 01:07:51;;;;;;;9.95;8.95;;;17.10;99.90;;;;;;5095630;28;20197;-78
2022/08/14 01:10:18;;;;;;;10.10;9.10;;;17.00;99.90;;;;;;5095486;28;20651;-78
2022/08/14 01:12:47;;;;;;;10.18;9.20;;;16.90;99.90;;;;;;5095669;28;20258;-78
2022/08/14 01:15:15;;;;;;;10.07;9.13;;;17.00;99.90;;;;;;5095647;28;20265;-78
2022/08/14 01:23:15;;;;;;;9.52;8.73;;;17.00;99.90;;;;;;5095577;28;20204;-77
2022/08/14 01:25:41;;;;;;;9.07;8.27;;;17.10;99.90;;;;;;5095282;28;20228;-78
2022/08/14 01:28:09;;;;;;;9.57;8.68;;;17.10;99.90;;;;;;5095252;28;20560;-77
2022/08/14 01:30:37;;;;;;;9.07;8.27;;;16.90;99.90;;;;;;5095294;28;20196;-78
2022/08/14 01:33:04;;;;;;;9.35;8.43;;;16.80;99.90;;;;;;5094969;28;20200;-78
2022/08/14 01:35:31;;;;;;;10.85;9.85;;;16.80;99.90;;;;;;5095163;28;20246;-78
2022/08/14 01:37:57;;;;;;;10.00;9.10;;;16.70;99.90;;;;;;5095123;28;20192;-77
2022/08/14 01:40:26;;;;;;;10.27;9.27;;;16.50;99.90;;;;;;5094974;28;20224;-78
2022/08/14 01:42:54;;;;;;;10.68;9.77;;;16.70;99.90;;;;;;5094954;28;20768;-78
2022/08/14 01:45:21;;;;;;;9.88;8.98;;;16.80;99.90;;;;;;5094748;28;20231;-78
2022/08/14 01:47:48;;;;;;;9.90;9.10;;;16.60;99.90;;;;;;5094786;28;20586;-78
2022/08/14 01:50:17;;;;;;;9.77;8.93;;;16.50;99.90;;;;;;5095022;28;20569;-78
2022/08/14 01:52:43;;;;;;;9.77;8.88;;;16.60;99.90;;;;;;5094856;28;20295;-78
2022/08/14 01:55:12;;;;;;;9.55;8.70;;;16.40;99.90;;;;;;5094752;28;20197;-78
2022/08/14 01:57:44;;;;;;;10.60;9.43;;;16.30;99.90;;;;;;5094731;28;20204;-78
2022/08/14 02:00:15;;;;;;;22.23;18.30;;;16.30;99.90;;;;;;5094552;28;20196;-78
2022/08/14 02:02:42;;;;;;;18.27;16.10;;;16.40;99.90;;;;;;5094655;28;20257;-77
2022/08/14 02:05:11;;;;;;;17.95;15.85;;;16.40;99.90;;;;;;5094326;28;20695;-78
2022/08/14 02:07:38;;;;;;;20.17;15.68;;;16.40;99.90;;;;;;5094513;28;20218;-78
2022/08/14 02:10:07;;;;;;;18.65;15.52;;;16.40;99.90;;;;;;5094494;28;20265;-78
2022/08/14 02:12:33;;;;;;;17.83;15.25;;;16.40;99.90;;;;;;5094256;28;20196;-78
2022/08/14 02:15:02;;;;;;;17.87;14.77;;;16.40;99.90;;;;;;5094220;28;20196;-78
2022/08/14 02:17:29;;;;;;;15.25;13.15;;;16.40;99.90;;;;;;5094364;28;20204;-78
2022/08/14 02:19:56;;;;;;;13.75;12.35;;;16.40;99.90;;;;;;5094056;28;20537;-77
2022/08/14 02:22:25;;;;;;;14.90;13.37;;;16.30;99.90;;;;;;5094247;28;20238;-78
2022/08/14 02:24:52;;;;;;;12.98;11.77;;;16.40;99.90;;;;;;5093996;28;20224;-78
2022/08/14 02:27:19;;;;;;;12.47;11.27;;;16.30;99.90;;;;;;5094126;28;20196;-78
2022/08/14 02:29:46;;;;;;;12.45;11.35;;;16.30;99.90;;;;;;5094295;28;20208;-78
2022/08/14 02:32:16;;;;;;;13.07;11.57;;;16.30;99.90;;;;;;5094059;28;20196;-78
2022/08/14 02:34:43;;;;;;;15.27;11.82;;;16.30;99.90;;;;;;5094090;28;20602;-78
2022/08/14 02:37:11;;;;;;;13.57;11.48;;;16.20;99.90;;;;;;5094121;28;20204;-78
2022/08/14 02:39:40;;;;;;;13.38;11.82;;;16.20;99.90;;;;;;5093779;28;20606;-78
2022/08/14 02:42:11;;;;;;;13.97;12.20;;;16.20;99.90;;;;;;5093810;28;20262;-78
2022/08/14 02:44:39;;;;;;;13.23;12.03;;;16.10;99.90;;;;;;5093752;28;20224;-78
2022/08/14 02:47:07;;;;;;;14.93;13.48;;;16.10;99.90;;;;;;5093834;28;20265;-78
2022/08/14 02:49:36;;;;;;;14.47;12.93;;;16.10;99.90;;;;;;5093745;28;20239;-78
2022/08/14 02:52:06;;;;;;;15.23;13.73;;;16.00;99.90;;;;;;5093552;28;20634;-78
2022/08/14 02:54:34;;;;;;;14.55;13.05;;;16.00;99.90;;;;;;5093746;28;20201;-78
2022/08/14 02:57:04;;;;;;;14.70;13.20;;;16.00;99.90;;;;;;5093838;28;20567;-78
2022/08/14 02:59:32;;;;;;;15.68;13.40;;;16.00;99.90;;;;;;5093692;28;20200;-78
2022/08/14 03:01:59;;;;;;;15.50;13.30;;;15.90;99.90;;;;;;5093537;28;20200;-78
2022/08/14 03:04:28;;;;;;;14.88;13.30;;;15.90;99.90;;;;;;5093359;28;20212;-78
2022/08/14 03:06:56;;;;;;;13.90;12.67;;;15.80;99.90;;;;;;5093368;28;20223;-78
2022/08/14 03:09:24;;;;;;;14.03;12.73;;;15.80;99.90;;;;;;5093587;28;20672;-78
2022/08/14 03:11:51;;;;;;;14.00;12.80;;;15.80;99.90;;;;;;5093394;28;20242;-77
2022/08/14 03:14:19;;;;;;;14.53;12.93;;;15.70;99.90;;;;;;5093031;28;20287;-78
2022/08/14 03:16:48;;;;;;;13.90;12.67;;;15.70;99.90;;;;;;5093263;28;20728;-78
2022/08/14 03:19:14;;;;;;;15.67;12.40;;;15.60;99.90;;;;;;5093122;28;20196;-78
2022/08/14 03:21:42;;;;;;;12.53;11.33;;;15.50;99.90;;;;;;5093372;28;20197;-78
2022/08/14 03:24:11;;;;;;;10.93;10.03;;;15.40;99.90;;;;;;5093423;28;20196;-77
2022/08/14 03:26:39;;;;;;;11.87;10.87;;;15.20;99.90;;;;;;5093214;28;20200;-78
2022/08/14 03:29:07;;;;;;;11.77;10.57;;;15.10;99.90;;;;;;5093173;28;20192;-78
2022/08/14 03:31:39;;;;;;;11.67;10.57;;;15.20;99.90;;;;;;5092974;28;20196;-78
2022/08/14 03:34:07;;;;;;;13.17;10.50;;;15.20;99.90;;;;;;5093274;28;20207;-78
2022/08/14 03:36:34;;;;;;;11.93;10.73;;;15.30;99.90;;;;;;5093082;28;20200;-78
2022/08/14 03:39:02;;;;;;;12.13;11.03;;;15.10;99.90;;;;;;5093043;28;20192;-78
2022/08/14 03:41:30;;;;;;;13.37;12.17;;;14.90;99.90;;;;;;5092749;28;20228;-78
2022/08/14 03:44:00;;;;;;;12.60;11.43;;;14.90;99.90;;;;;;5092815;28;20659;-77
2022/08/14 03:46:30;;;;;;;13.47;11.93;;;14.80;99.90;;;;;;5092679;28;20228;-77
2022/08/14 03:49:00;;;;;;;12.33;11.13;;;14.90;99.90;;;;;;5092941;28;20246;-77
2022/08/14 03:51:27;;;;;;;13.63;12.23;;;14.90;99.90;;;;;;5092903;28;20200;-78
2022/08/14 03:53:55;;;;;;;12.33;11.10;;;15.00;99.90;;;;;;5092930;28;20291;-77
2022/08/14 03:56:23;;;;;;;12.93;11.70;;;14.90;99.90;;;;;;5092719;28;20223;-77
2022/08/14 03:58:54;;;;;;;12.93;11.67;;;14.90;99.90;;;;;;5092663;28;20200;-77
2022/08/14 04:01:23;;;;;;;13.67;12.37;;;14.90;99.90;;;;;;5092940;28;20200;-77
2022/08/14 04:03:52;;;;;;;13.30;11.87;;;14.90;99.90;;;;;;5092851;28;20231;-77
2022/08/14 04:06:20;;;;;;;12.00;10.87;;;14.90;99.90;;;;;;5092755;28;20230;-78
2022/08/14 04:08:48;;;;;;;12.67;11.47;;;14.90;99.90;;;;;;5092647;28;20207;-77
2022/08/14 04:11:16;;;;;;;15.03;13.43;;;14.80;99.90;;;;;;5092618;28;20193;-77
2022/08/14 04:13:43;;;;;;;19.30;16.30;;;14.80;99.90;;;;;;5092471;28;20201;-77
2022/08/14 04:16:15;;;;;;;19.80;15.87;;;14.90;99.90;;;;;;5092702;28;20248;-77
2022/08/14 04:18:44;;;;;;;18.83;16.23;;;15.00;99.90;;;;;;5092676;28;20245;-78
2022/08/14 04:21:11;;;;;;;15.77;14.17;;;15.00;99.90;;;;;;5092685;28;20203;-77
2022/08/14 04:23:38;;;;;;;14.83;13.40;;;15.00;99.90;;;;;;5092524;28;20652;-77
2022/08/14 04:26:07;;;;;;;15.40;13.90;;;15.00;99.90;;;;;;5094915;28;20234;-77
2022/08/14 04:28:35;;;;;;;16.93;15.37;;;15.10;99.90;;;;;;5096597;28;20547;-77
2022/08/14 04:31:02;;;;;;;17.57;16.07;;;15.00;99.90;;;;;;5096520;28;20240;-77
2022/08/14 04:33:31;;;;;;;17.50;15.83;;;15.10;99.90;;;;;;5096428;28;20230;-77
2022/08/14 04:35:57;;;;;;;16.57;14.87;;;15.10;99.90;;;;;;5096692;28;20192;-78
2022/08/14 04:43:53;;;;;;;17.80;14.97;;;15.50;99.90;;;;;;5097825;28;20281;-78
2022/08/14 04:46:22;;;;;;;18.30;15.07;;;15.40;99.90;;;;;;5097237;28;20224;-78
2022/08/14 04:48:49;;;;;;;17.77;14.67;;;15.50;99.90;;;;;;5096019;28;20685;-77
2022/08/14 04:51:19;;;;;;;17.87;15.07;;;15.60;99.90;;;;;;5096172;28;20291;-77
2022/08/14 04:53:47;;;;;;;17.50;15.70;;;15.70;99.90;;;;;;5095947;28;20192;-76
2022/08/14 04:56:17;;;;;;;16.70;15.00;;;15.80;99.90;;;;;;5096010;28;20250;-76
2022/08/14 04:58:44;;;;;;;16.13;14.63;;;15.70;99.90;;;;;;5095765;28;20257;-76
2022/08/14 05:01:12;;;;;;;15.07;13.57;;;15.80;99.90;;;;;;5095719;28;20193;-77
2022/08/14 05:03:38;;;;;;;15.27;13.77;;;15.90;99.90;;;;;;5095646;28;20200;-77
2022/08/14 05:06:08;;;;;;;15.63;14.17;;;16.00;99.90;;;;;;5095525;28;20618;-77
2022/08/14 05:08:35;;;;;;;15.20;13.70;;;16.10;99.90;;;;;;5095724;28;20200;-77
2022/08/14 05:11:05;;;;;;;16.07;14.67;;;16.20;99.90;;;;;;5095629;28;20269;-77
2022/08/14 05:13:32;;;;;;;16.17;14.77;;;16.30;99.90;;;;;;5095800;28;20196;-78
2022/08/14 05:16:01;;;;;;;16.88;15.38;;;16.40;99.90;;;;;;5095504;28;20789;-77
2022/08/14 05:18:30;;;;;;;17.08;13.90;;;16.50;99.90;;;;;;5095620;28;20254;-77
2022/08/14 05:20:58;;;;;;;16.30;14.80;;;16.60;99.90;;;;;;5095502;28;20245;-78
2022/08/14 05:23:29;;;;;;;15.32;14.00;;;16.60;99.90;;;;;;5095522;28;20196;-78
2022/08/14 05:25:59;;;;;;;15.13;13.75;;;16.80;99.90;;;;;;5095246;28;20216;-78
2022/08/14 05:28:27;;;;;;;15.98;14.48;;;16.90;99.90;;;;;;5095324;28;20207;-78
2022/08/14 05:30:56;;;;;;;15.23;13.77;;;17.00;99.90;;;;;;5095395;28;20196;-78
2022/08/14 05:33:27;;;;;;;15.07;13.57;;;17.10;99.90;;;;;;5095293;28;20249;-77
2022/08/14 05:36:00;;;;;;;15.05;13.65;;;17.20;99.90;;;;;;5094807;28;20257;-78
2022/08/14 05:38:32;;;;;;;15.07;13.57;;;17.30;99.90;;;;;;5095448;28;20678;-78
2022/08/14 05:41:01;;;;;;;13.23;12.02;;;17.40;99.90;;;;;;5094896;28;20289;-77
2022/08/14 05:43:28;;;;;;;12.38;11.23;;;17.30;99.90;;;;;;5095255;28;20207;-78
2022/08/14 05:45:55;;;;;;;11.10;10.20;;;17.20;99.90;;;;;;5094729;28;20277;-77
2022/08/14 05:48:21;;;;;;;12.27;11.02;;;17.20;99.90;;;;;;5094949;28;20325;-77
2022/08/14 05:50:48;;;;;;;13.82;12.55;;;17.40;99.90;;;;;;5095140;28;20586;-77
2022/08/14 05:53:15;;;;;;;15.40;14.00;;;17.60;99.90;;;;;;5094828;28;20200;-78
2022/08/14 05:55:43;;;;;;;15.18;13.80;;;17.80;99.90;;;;;;5095180;28;20200;-78
2022/08/14 05:58:09;;;;;;;19.05;15.93;;;17.90;99.90;;;;;;5095556;28;20207;-78
2022/08/14 06:00:38;;;;;;;16.80;15.25;;;18.10;99.90;;;;;;5095295;28;20253;-77
2022/08/14 06:03:08;;;;;;;15.65;14.25;;;18.20;99.90;;;;;;5094795;28;20200;-77
2022/08/14 06:05:35;;;;;;;16.10;14.70;;;18.20;99.90;;;;;;5094519;28;20760;-78
2022/08/14 06:08:02;;;;;;;16.50;15.00;;;18.30;99.90;;;;;;5094447;28;20212;-77
2022/08/14 06:10:30;;;;;;;16.90;15.40;;;18.40;99.90;;;;;;5094529;28;20200;-78
2022/08/14 06:13:00;;;;;;;16.70;15.10;;;18.50;99.90;;;;;;5094783;28;20191;-77
2022/08/14 06:15:27;;;;;;;16.35;14.65;;;18.60;99.90;;;;;;5094482;28;20250;-78
2022/08/14 06:17:55;;;;;;;15.27;13.98;;;18.80;99.90;;;;;;5094554;28;20196;-79
2022/08/14 06:20:23;;;;;;;15.27;13.98;;;18.90;99.90;;;;;;5094336;28;20196;-77
2022/08/14 06:22:50;;;;;;;15.27;13.88;;;19.00;99.90;;;;;;5094518;28;20524;-78
2022/08/14 06:25:17;;;;;;;15.50;14.07;;;19.10;99.90;;;;;;5094218;28;20269;-78
2022/08/14 06:27:46;;;;;;;14.13;12.82;;;19.20;99.90;;;;;;5094338;28;20201;-77
2022/08/14 06:30:17;;;;;;;13.27;12.07;;;19.30;99.90;;;;;;5094126;28;20245;-78
2022/08/14 06:32:44;;;;;;;14.15;12.60;;;19.40;99.90;;;;;;5094369;28;20279;-77
2022/08/14 06:35:13;;;;;;;14.40;13.13;;;19.50;99.90;;;;;;5093970;28;20196;-77
2022/08/14 06:37:42;;;;;;;14.23;12.73;;;19.60;99.90;;;;;;5094194;28;20193;-77
2022/08/14 06:40:11;;;;;;;14.27;12.88;;;19.70;99.90;;;;;;5093861;28;20224;-77
2022/08/14 06:42:38;;;;;;;14.38;12.85;;;19.80;99.90;;;;;;5094135;28;20251;-77
2022/08/14 06:45:06;;;;;;;13.75;12.55;;;19.90;99.90;;;;;;5093712;28;20611;-77
2022/08/14 06:47:35;;;;;;;12.82;11.73;;;20.00;99.90;;;;;;5093192;28;20246;-79
2022/08/14 06:50:02;;;;;;;13.00;11.90;;;20.10;99.90;;;;;;5093903;28;20253;-78
2022/08/14 06:52:28;;;;;;;12.50;11.20;;;20.20;99.90;;;;;;5093791;28;20609;-79
2022/08/14 06:54:55;;;;;;;12.43;11.32;;;20.30;99.90;;;;;;5093867;28;20655;-79
2022/08/14 06:57:22;;;;;;;12.27;11.27;;;20.40;99.90;;;;;;5093663;28;20200;-78
2022/08/14 06:59:49;;;;;;;12.65;11.55;;;20.50;99.90;;;;;;5093586;28;20660;-79
2022/08/14 07:07:51;;;;;;;12.02;11.02;;;20.80;99.90;;;;;;5087566;28;20203;-79
2022/08/14 07:10:21;;;;;;;12.90;11.80;;;20.80;99.90;;;;;;5093386;28;20253;-78
2022/08/14 07:12:47;;;;;;;12.55;11.45;;;20.90;99.90;;;;;;5093478;28;20284;-78
2022/08/14 07:15:14;;;;;;;12.07;10.85;;;21.00;99.90;;;;;;5093520;28;20199;-77
2022/08/14 07:17:45;;;;;;;11.77;10.68;;;21.10;99.90;;;;;;5093238;28;20196;-78
2022/08/14 07:20:13;;;;;;;11.88;10.80;;;21.30;99.90;;;;;;5093313;28;20200;-79
2022/08/14 07:22:40;;;;;;;12.02;10.80;;;21.40;99.90;;;;;;5093213;28;20207;-78
2022/08/14 07:25:07;;;;;;;11.95;10.88;;;21.50;99.90;;;;;;5093354;28;20200;-78
2022/08/14 07:27:34;;;;;;;11.00;10.00;;;21.80;99.90;;;;;;5094432;28;20220;-78
2022/08/14 07:30:03;;;;;;;12.07;10.98;;;21.90;99.90;;;;;;5094296;28;20196;-78
2022/08/14 07:32:30;;;;;;;10.57;9.68;;;22.10;99.90;;;;;;5094187;28;20196;-78
2022/08/14 07:34:57;;;;;;;10.98;10.10;;;22.30;99.90;;;;;;5093633;28;20196;-78
2022/08/14 07:37:25;;;;;;;11.50;10.50;;;22.40;99.90;;;;;;5093882;28;20218;-78
2022/08/14 07:39:51;;;;;;;10.68;9.50;;;22.70;99.90;;;;;;5092735;28;20200;-78
2022/08/14 07:42:18;;;;;;;10.63;9.73;;;22.80;99.90;;;;;;5093111;28;20222;-78
2022/08/14 07:44:45;;;;;;;10.43;9.57;;;23.00;99.90;;;;;;5092924;28;20200;-79
2022/08/14 07:47:12;;;;;;;11.07;10.00;;;23.20;99.90;;;;;;5092974;28;20269;-78
2022/08/14 07:49:39;;;;;;;10.10;9.20;;;23.30;99.90;;;;;;5092917;28;20196;-78
2022/08/14 07:52:07;;;;;;;10.50;9.32;;;23.30;99.90;;;;;;5092586;28;20207;-78
2022/08/14 07:54:35;;;;;;;10.50;9.60;;;23.40;99.90;;;;;;5093102;28;20196;-78
2022/08/14 07:57:02;;;;;;;9.82;9.02;;;23.40;99.90;;;;;;5093090;28;20640;-77
2022/08/14 07:59:29;;;;;;;10.18;9.27;;;23.60;99.90;;;;;;5094318;28;20230;-78
2022/08/14 08:01:56;;;;;;;10.18;9.38;;;23.90;99.90;;;;;;5097059;28;20237;-78
2022/08/14 08:04:26;;;;;;;10.00;9.20;;;24.00;99.90;;;;;;5096814;28;20586;-78
2022/08/14 08:06:53;;;;;;;10.32;9.32;;;24.10;99.90;;;;;;5096755;28;20220;-77
2022/08/14 08:09:23;;;;;;;9.60;8.70;;;24.10;99.90;;;;;;5097007;28;20563;-78
2022/08/14 08:11:52;;;;;;;10.55;9.55;;;24.30;99.90;;;;;;5096904;28;20249;-77
2022/08/14 08:14:20;;;;;;;10.68;9.70;;;24.50;99.90;;;;;;5096830;28;20203;-77
2022/08/14 08:16:48;;;;;;;10.55;9.55;;;24.60;99.90;;;;;;5096655;28;20647;-77
2022/08/14 08:19:17;;;;;;;9.77;8.85;;;24.70;99.90;;;;;;5096525;28;20196;-77
2022/08/14 08:21:45;;;;;;;9.80;8.93;;;24.70;99.90;;;;;;5096700;28;20200;-77
2022/08/14 08:24:11;;;;;;;9.73;8.88;;;24.80;99.90;;;;;;5096670;28;20196;-78
2022/08/14 08:26:38;;;;;;;9.57;8.30;;;25.10;99.90;;;;;;5096664;28;20220;-77
2022/08/14 08:29:06;;;;;;;9.18;8.45;;;25.30;99.90;;;;;;5096477;28;20196;-79
2022/08/14 08:31:35;;;;;;;9.85;8.68;;;25.50;99.90;;;;;;5096412;28;20193;-79
2022/08/14 08:34:04;;;;;;;9.50;8.80;;;25.50;99.90;;;;;;5096192;28;20209;-78
2022/08/14 08:36:40;;;;;;;9.93;9.18;;;25.80;99.90;;;;;;5096407;28;20206;-78
2022/08/14 08:39:07;;;;;;;10.73;8.68;;;25.90;99.90;;;;;;5096333;28;20206;-78
2022/08/14 08:41:40;;;;;;;9.07;8.23;;;25.90;99.90;;;;;;5096232;28;20228;-77
2022/08/14 08:44:08;;;;;;;10.38;9.57;;;26.20;99.90;;;;;;5096117;28;20250;-77
2022/08/14 08:46:35;;;;;;;9.35;8.63;;;26.10;99.90;;;;;;5096236;28;20285;-77
2022/08/14 08:49:01;;;;;;;8.45;7.75;;;26.40;99.90;;;;;;5096049;28;20753;-77
2022/08/14 08:51:30;;;;;;;9.25;8.45;;;26.60;99.90;;;;;;5095954;28;20824;-78
2022/08/14 08:53:59;;;;;;;9.90;8.95;;;27.00;99.90;;;;;;5095872;28;20613;-77
2022/08/14 08:56:37;;;;;;;8.95;8.10;;;27.30;99.90;;;;;;5095855;28;20208;-78
2022/08/14 08:59:18;;;;;;;8.45;7.75;;;27.40;99.90;;;;;;5095838;28;20200;-77
2022/08/14 09:01:49;;;;;;;7.55;6.95;;;27.20;99.90;;;;;;5095748;28;20667;-77
2022/08/14 09:04:16;;;;;;;7.20;6.53;;;27.20;99.90;;;;;;5095722;28;20660;-78
2022/08/14 09:06:46;;;;;;;7.00;6.38;;;27.70;98.80;;;;;;5095597;28;20702;-78
2022/08/14 09:09:20;;;;;;;7.25;6.75;;;27.80;97.70;;;;;;5095640;28;20204;-78
2022/08/14 09:11:47;;;;;;;7.40;6.70;;;28.20;96.30;;;;;;5095002;28;20195;-78
2022/08/14 09:14:14;;;;;;;7.40;6.80;;;28.20;95.40;;;;;;5095620;28;20226;-79
2022/08/14 09:16:42;;;;;;;7.55;6.85;;;28.50;94.90;;;;;;5094105;28;20724;-78
2022/08/14 09:19:09;;;;;;;7.88;7.05;;;28.50;93.80;;;;;;5095280;28;20238;-77
2022/08/14 09:21:38;;;;;;;7.90;7.22;;;28.40;93.50;;;;;;5094966;28;20237;-78
2022/08/14 09:24:06;;;;;;;7.68;6.60;;;28.50;93.10;;;;;;5095271;28;20729;-77
2022/08/14 09:26:33;;;;;;;7.00;6.32;;;28.70;92.20;;;;;;5095091;28;20220;-75
2022/08/14 09:29:00;;;;;;;7.30;6.65;;;28.40;91.40;;;;;;5088128;28;20197;-76
2022/08/14 09:31:29;;;;;;;7.30;6.60;;;28.00;91.40;;;;;;5072620;28;20201;-77
2022/08/14 09:34:11;;;;;;;6.75;6.25;;;28.40;90.90;;;;;;5072593;28;20821;-77
2022/08/14 09:36:52;;;;;;;7.82;5.97;;;29.00;88.00;;;;;;5073034;28;20566;-77
2022/08/14 09:39:29;;;;;;;6.47;5.85;;;29.00;86.60;;;;;;5073910;28;20196;-76
2022/08/14 09:42:08;;;;;;;7.20;6.50;;;28.80;84.10;;;;;;5071834;28;20262;-75
2022/08/14 09:44:46;;;;;;;7.13;6.43;;;29.30;84.90;;;;;;5072112;28;20247;-75
2022/08/14 09:47:14;;;;;;;6.82;6.30;;;29.60;82.80;;;;;;5072538;28;20233;-75
2022/08/14 09:49:42;;;;;;;6.82;6.30;;;29.80;80.30;;;;;;5072373;28;20207;-75
2022/08/14 09:52:11;;;;;;;7.13;6.43;;;29.90;78.20;;;;;;5072236;28;20201;-75
2022/08/14 09:54:39;;;;;;;6.70;6.20;;;30.10;77.90;;;;;;5071722;28;20200;-76
2022/08/14 09:57:09;;;;;;;6.15;5.70;;;30.60;75.10;;;;;;5072121;28;20212;-75
2022/08/14 09:59:44;;;;;;;6.25;5.75;;;30.20;73.60;;;;;;5072318;28;20200;-77
2022/08/14 10:02:22;;;;;;;8.52;5.57;;;30.90;71.10;;;;;;5072238;28;20258;-76
2022/08/14 10:05:07;;;;;;;5.75;5.22;;;31.40;68.50;;;;;;5072367;28;20849;-76
2022/08/14 10:07:36;;;;;;;5.72;5.20;;;31.70;64.20;;;;;;5069804;28;20220;-78
2022/08/14 10:10:04;;;;;;;6.63;6.03;;;31.70;61.40;;;;;;5072110;28;20200;-78
2022/08/14 10:12:44;;;;;;;8.18;5.82;;;30.40;63.30;;;;;;5072870;28;20197;-82
2022/08/14 10:15:19;;;;;;;7.03;5.97;;;30.50;64.50;;;;;;5074448;28;20204;-79
2022/08/14 10:17:47;;;;;;;5.75;5.35;;;31.00;63.70;;;;;;5076617;28;20388;-78
2022/08/14 10:20:20;;;;;;;5.65;5.25;;;31.80;62.00;;;;;;5075765;28;20200;-79
2022/08/14 10:22:48;;;;;;;5.30;4.90;;;32.50;59.60;;;;;;5076948;28;20211;-77
2022/08/14 10:25:16;;;;;;;6.20;4.78;;;33.10;57.40;;;;;;5082628;28;20287;-77
2022/08/14 10:27:45;;;;;;;5.18;4.68;;;33.50;54.20;;;;;;5094549;28;20231;-76
2022/08/14 10:30:17;;;;;;;6.15;4.40;;;33.40;52.60;;;;;;5093995;28;20200;-73
2022/08/14 10:32:44;;;;;;;4.93;4.53;;;34.20;51.90;;;;;;5093075;28;20650;-76
2022/08/14 10:35:12;;;;;;;6.03;4.60;;;34.40;49.10;;;;;;5094261;28;20229;-77
2022/08/14 10:37:44;;;;;;;6.25;5.15;;;35.10;48.00;;;;;;5093931;28;20192;-78
2022/08/14 10:40:12;;;;;;;5.10;4.60;;;34.70;46.00;;;;;;5093927;28;20238;-78
2022/08/14 10:42:40;;;;;;;5.18;4.65;;;34.40;45.30;;;;;;5093923;28;20195;-76
2022/08/14 10:45:19;;;;;;;5.55;4.53;;;34.90;43.60;;;;;;5093762;28;20199;-78
2022/08/14 10:47:47;;;;;;;4.88;4.47;;;35.50;42.50;;;;;;5093912;28;20230;-77
2022/08/14 10:50:15;;;;;;;4.78;4.38;;;35.40;41.20;;;;;;5093931;28;20252;-76
2022/08/14 10:52:45;;;;;;;4.90;4.50;;;35.10;41.80;;;;;;5093973;28;20207;-78
2022/08/14 10:55:13;;;;;;;6.05;4.78;;;35.50;40.30;;;;;;5093809;28;20192;-78
2022/08/14 10:57:51;;;;;;;4.60;4.15;;;35.40;40.30;;;;;;5094255;28;20290;-76
2022/08/14 11:00:20;;;;;;;4.90;4.50;;;36.40;39.00;;;;;;5094096;28;20200;-76
2022/08/14 11:02:57;;;;;;;4.93;4.53;;;37.20;37.50;;;;;;5093761;28;20203;-77
2022/08/14 11:05:25;;;;;;;5.07;4.78;;;35.90;37.30;;;;;;5093709;28;20196;-76
2022/08/14 11:07:59;;;;;;;5.15;4.75;;;37.00;35.40;;;;;;5093524;28;20575;-76
2022/08/14 11:10:39;;;;;;;4.93;4.63;;;34.70;36.20;;;;;;5094513;28;20644;-78
2022/08/14 11:13:06;;;;;;;4.95;4.50;;;32.30;38.90;;;;;;5094170;28;20704;-77
2022/08/14 11:15:33;;;;;;;5.68;5.15;;;33.20;38.80;;;;;;5093688;28;20650;-78
2022/08/14 11:17:59;;;;;;;5.00;4.50;;;35.00;37.70;;;;;;5093527;28;20192;-77
2022/08/14 11:20:28;;;;;;;5.32;4.93;;;37.00;34.60;;;;;;5093211;28;20202;-77
2022/08/14 11:22:59;;;;;;;5.20;4.80;;;37.70;33.20;;;;;;5093481;28;20287;-77
2022/08/14 11:25:28;;;;;;;4.50;4.20;;;38.60;32.50;;;;;;5093410;28;20202;-77
2022/08/14 11:27:57;;;;;;;4.70;4.40;;;38.60;30.90;;;;;;5093192;28;20312;-77
2022/08/14 11:30:26;;;;;;;5.03;4.53;;;37.00;31.00;;;;;;5093166;28;20269;-76
2022/08/14 11:32:54;;;;;;;5.30;4.85;;;36.20;31.90;;;;;;5093050;28;20203;-76
2022/08/14 11:35:22;;;;;;;5.38;4.88;;;34.90;32.80;;;;;;5092985;28;20291;-76
2022/08/14 11:37:51;;;;;;;4.95;4.57;;;33.60;34.00;;;;;;5093169;28;20196;-76
2022/08/14 11:40:20;;;;;;;5.18;4.68;;;33.40;34.90;;;;;;5092995;28;20641;-77
2022/08/14 11:42:47;;;;;;;4.90;4.50;;;33.80;35.20;;;;;;5093234;28;20192;-77
2022/08/14 11:45:15;;;;;;;5.03;4.63;;;34.70;33.60;;;;;;5092954;28;20200;-78
2022/08/14 11:47:43;;;;;;;4.70;4.40;;;34.30;32.80;;;;;;5092957;28;20273;-77
2022/08/14 11:50:14;;;;;;;5.00;4.60;;;33.70;33.70;;;;;;5093265;28;20191;-77
2022/08/14 11:52:41;;;;;;;5.10;4.03;;;34.80;32.10;;;;;;5092974;28;20198;-77
2022/08/14 11:55:11;;;;;;;4.53;4.22;;;35.60;30.50;;;;;;5092894;28;20245;-77
2022/08/14 11:57:39;;;;;;;4.45;4.15;;;37.40;29.70;;;;;;5092906;28;20556;-77
2022/08/14 12:00:09;;;;;;;4.43;4.07;;;38.30;27.80;;;;;;5092766;28;20196;-78
2022/08/14 12:02:36;;;;;;;4.55;4.15;;;38.40;28.30;;;;;;5092973;28;20241;-77
2022/08/14 12:05:03;;;;;;;4.90;4.28;;;40.20;27.40;;;;;;5092957;28;20195;-76
2022/08/14 12:07:30;;;;;;;5.13;4.13;;;40.60;26.80;;;;;;5092514;28;20759;-78
2022/08/14 12:09:58;;;;;;;4.65;4.28;;;41.00;26.40;;;;;;5092743;28;20233;-78
2022/08/14 12:12:26;;;;;;;4.53;4.22;;;41.70;25.10;;;;;;5092618;28;20227;-76
2022/08/14 12:14:58;;;;;;;4.68;4.35;;;41.00;24.60;;;;;;5092878;28;20245;-76
2022/08/14 12:17:27;;;;;;;4.22;3.97;;;40.40;24.80;;;;;;5092571;28;20577;-76
2022/08/14 12:19:57;;;;;;;7.45;3.80;;;41.10;24.50;;;;;;5092743;28;20200;-78
2022/08/14 12:22:35;;;;;;;4.28;3.97;;;40.70;23.50;;;;;;5092637;28;20231;-78
2022/08/14 12:25:02;;;;;;;4.05;3.70;;;41.80;22.60;;;;;;5092697;28;20203;-78
2022/08/14 12:27:37;;;;;;;4.40;4.07;;;42.50;21.90;;;;;;5092590;28;20294;-76
2022/08/14 12:30:06;;;;;;;4.35;4.05;;;43.10;21.00;;;;;;5092611;28;20199;-77
2022/08/14 12:32:42;;;;;;;3.53;3.25;;;42.60;20.60;;;;;;5092464;28;20253;-77
2022/08/14 12:35:09;;;;;;;4.57;4.28;;;42.80;20.00;;;;;;5092690;28;20203;-76
2022/08/14 12:37:37;;;;;;;4.40;4.05;;;41.30;20.30;;;;;;5092381;28;20242;-78
2022/08/14 12:40:12;;;;;;;6.10;3.97;;;42.40;20.20;;;;;;5092365;28;20611;-78
2022/08/14 12:42:39;;;;;;;4.97;3.80;;;42.60;19.30;;;;;;5092324;28;20681;-78
2022/08/14 12:45:10;;;;;;;5.18;4.07;;;43.10;19.40;;;;;;5092423;28;20198;-78
2022/08/14 12:47:37;;;;;;;4.38;4.03;;;44.20;18.80;;;;;;5095220;28;20226;-78
2022/08/14 12:50:05;;;;;;;4.45;4.03;;;44.20;18.10;;;;;;5095946;28;20256;-76
2022/08/14 12:52:34;;;;;;;4.10;3.80;;;43.70;18.30;;;;;;5096194;28;20195;-78
2022/08/14 12:55:03;;;;;;;4.45;3.90;;;44.40;17.90;;;;;;5095881;28;20639;-76
2022/08/14 12:57:36;;;;;;;4.28;3.88;;;45.20;17.50;;;;;;5096010;28;20252;-76
2022/08/14 13:00:14;;;;;;;4.35;4.05;;;44.00;17.20;;;;;;5095922;28;20204;-76
2022/08/14 13:02:41;;;;;;;4.22;3.92;;;45.00;17.30;;;;;;5096278;28;20227;-76